sensor_id;sensor_type;location;lat;lon;timestamp;temperature;humidity
8676;DHT22;4375;52.486;13.424;2022-09-01T00:00:39;16.60;99.90
8676;DHT22;4375;52.486;13.424;2022-09-01T00:03:07;16.60;99.90
8676;DHT22;4375;52.486;13.424;2022-09-01T00:05:35;16.60;99.90
8676;DHT22;4375;52.486;13.424;2022-09-01T00:08:02;16.70;99.90
8676;DHT22;4375;52.486;13.424;2022-09-01T00:10:28;16.60;99.90
8676;DHT22;4375;52.486;13.424;2022-09-01T00:12:54;16.70;99.90
8676;DHT22;4375;52.486;13.424;2022-09-01T00:15:20;16.60;99.90
8676;DHT22;4375;52.486;13.424;2022-09-01T00:17:45;16.70;99.90
8676;DHT22;4375;52.486;13.424;2022-09-01T00:20:12;16.60;99.90
8676;DHT22;4375;52.486;13.424;2022-09-01T00:22:38;16.60;99.90
8676;DHT22;4375;52.486;13.424;2022-09-01T00:25:04;16.70;99.90
8676;DHT22;4375;52.486;13.424;2022-09-01T00:27:31;16.60;99.90
8676;DHT22;4375;52.486;13.424;2022-09-01T00:29:57;16.70;99.90
8676;DHT22;4375;52.486;13.424;2022-09-01T00:32:23;16.70;99.90
8676;DHT22;4375;52.486;13.424;2022-09-01T00:34:49;16.60;99.90
8676;DHT22;4375;52.486;13.424;2022-09-01T00:37:15;16.60;99.90
8676;DHT22;4375;52.486;13.424;2022-09-01T00:39:41;16.60;99.90
8676;DHT22;4375;52.486;13.424;2022-09-01T00:42:06;16.60;99.90
8676;DHT22;4375;52.486;13.424;2022-09-01T00:44:32;16.60;99.90
8676;DHT22;4375;52.486;13.424;2022-09-01T00:47:01;16.50;99.90
8676;DHT22;4375;52.486;13.424;2022-09-01T00:49:30;16.50;99.90
8676;DHT22;4375;52.486;13.424;2022-09-01T00:52:12;16.50;99.90
8676;DHT22;4375;52.486;13.424;2022-09-01T00:54:44;16.60;99.90
8676;DHT22;4375;52.486;13.424;2022-09-01T00:57:11;16.50;99.90
8676;DHT22;4375;52.486;13.424;2022-09-01T00:59:58;16.40;99.90
8676;DHT22;4375;52.486;13.424;2022-09-01T01:02:25;16.40;99.90
8676;DHT22;4375;52.486;13.424;2022-09-01T01:04:51;16.40;99.90
8676;DHT22;4375;52.486;13.424;2022-09-01T01:07:18;16.30;99.90
8676;DHT22;4375;52.486;13.424;2022-09-01T01:09:47;16.30;99.90
8676;DHT22;4375;52.486;13.424;2022-09-01T01:12:13;16.40;99.90
8676;DHT22;4375;52.486;13.424;2022-09-01T01:14:46;16.30;99.90
8676;DHT22;4375;52.486;13.424;2022-09-01T01:17:19;16.30;99.90
8676;DHT22;4375;52.486;13.424;2022-09-01T01:19:49;16.30;99.90
8676;DHT22;4375;52.486;13.424;2022-09-01T01:25:42;16.20;99.90
8676;DHT22;4375;52.486;13.424;2022-09-01T01:30:38;16.10;99.90
8676;DHT22;4375;52.486;13.424;2022-09-01T01:33:05;16.10;99.90
8676;DHT22;4375;52.486;13.424;2022-09-01T01:35:32;16.10;99.90
8676;DHT22;4375;52.486;13.424;2022-09-01T01:37:59;16.20;99.90
8676;DHT22;4375;52.486;13.424;2022-09-01T01:40:25;16.10;99.90
8676;DHT22;4375;52.486;13.424;2022-09-01T01:42:53;16.10;99.90
8676;DHT22;4375;52.486;13.424;2022-09-01T01:45:22;16.10;99.90
8676;DHT22;4375;52.486;13.424;2022-09-01T01:47:51;16.10;99.90
8676;DHT22;4375;52.486;13.424;2022-09-01T01:50:29;16.00;99.90
8676;DHT22;4375;52.486;13.424;2022-09-01T01:53:01;15.90;99.90
8676;DHT22;4375;52.486;13.424;2022-09-01T01:55:28;15.80;99.90
8676;DHT22;4375;52.486;13.424;2022-09-01T01:57:55;15.80;99.90
8676;DHT22;4375;52.486;13.424;2022-09-01T02:00:24;15.80;99.90
8676;DHT22;4375;52.486;13.424;2022-09-01T02:02:52;15.90;99.90
8676;DHT22;4375;52.486;13.424;2022-09-01T02:05:45;15.90;99.90
8676;DHT22;4375;52.486;13.424;2022-09-01T02:08:12;15.90;99.90
8676;DHT22;4375;52.486;13.424;2022-09-01T02:10:42;15.90;99.90
8676;DHT22;4375;52.486;13.424;2022-09-01T02:13:09;15.80;99.90
8676;DHT22;4375;52.486;13.424;2022-09-01T02:15:42;15.90;99.90
8676;DHT22;4375;52.486;13.424;2022-09-01T02:18:16;15.80;99.90
8676;DHT22;4375;52.486;13.424;2022-09-01T02:20:44;15.90;99.90
8676;DHT22;4375;52.486;13.424;2022-09-01T02:23:10;15.90;99.90
8676;DHT22;4375;52.486;13.424;2022-09-01T02:25:42;15.90;99.90
8676;DHT22;4375;52.486;13.424;2022-09-01T02:28:10;15.80;99.90
8676;DHT22;4375;52.486;13.424;2022-09-01T02:30:41;15.80;99.90
8676;DHT22;4375;52.486;13.424;2022-09-01T02:33:07;15.80;99.90
8676;DHT22;4375;52.486;13.424;2022-09-01T02:35:35;15.70;99.90
8676;DHT22;4375;52.486;13.424;2022-09-01T02:38:05;15.70;99.90
8676;DHT22;4375;52.486;13.424;2022-09-01T02:40:32;15.70;99.90
8676;DHT22;4375;52.486;13.424;2022-09-01T02:42:59;15.60;99.90
8676;DHT22;4375;52.486;13.424;2022-09-01T02:45:27;15.70;99.90
8676;DHT22;4375;52.486;13.424;2022-09-01T02:47:54;15.60;99.90
8676;DHT22;4375;52.486;13.424;2022-09-01T02:50:22;15.60;99.90
8676;DHT22;4375;52.486;13.424;2022-09-01T02:52:48;15.50;99.90
8676;DHT22;4375;52.486;13.424;2022-09-01T02:55:17;15.40;99.90
8676;DHT22;4375;52.486;13.424;2022-09-01T02:57:50;15.40;99.90
8676;DHT22;4375;52.486;13.424;2022-09-01T03:00:22;15.40;99.90
8676;DHT22;4375;52.486;13.424;2022-09-01T03:02:55;15.30;99.90
8676;DHT22;4375;52.486;13.424;2022-09-01T03:05:23;15.40;99.90
8676;DHT22;4375;52.486;13.424;2022-09-01T03:07:57;15.40;99.90
8676;DHT22;4375;52.486;13.424;2022-09-01T03:10:26;15.30;99.90
8676;DHT22;4375;52.486;13.424;2022-09-01T03:12:58;15.30;99.90
8676;DHT22;4375;52.486;13.424;2022-09-01T03:15:25;15.30;99.90
8676;DHT22;4375;52.486;13.424;2022-09-01T03:17:51;15.30;99.90
8676;DHT22;4375;52.486;13.424;2022-09-01T03:20:18;15.20;99.90
8676;DHT22;4375;52.486;13.424;2022-09-01T03:22:45;15.10;99.90
8676;DHT22;4375;52.486;13.424;2022-09-01T03:25:12;15.00;99.90
8676;DHT22;4375;52.486;13.424;2022-09-01T03:27:38;15.00;99.90
8676;DHT22;4375;52.486;13.424;2022-09-01T03:30:04;15.00;99.90
8676;DHT22;4375;52.486;13.424;2022-09-01T03:32:29;15.00;99.90
8676;DHT22;4375;52.486;13.424;2022-09-01T03:34:55;14.90;99.90
8676;DHT22;4375;52.486;13.424;2022-09-01T03:37:21;14.90;99.90
8676;DHT22;4375;52.486;13.424;2022-09-01T03:39:47;14.90;99.90
8676;DHT22;4375;52.486;13.424;2022-09-01T03:42:13;14.90;99.90
8676;DHT22;4375;52.486;13.424;2022-09-01T03:44:47;14.90;99.90
8676;DHT22;4375;52.486;13.424;2022-09-01T03:47:14;14.80;99.90
8676;DHT22;4375;52.486;13.424;2022-09-01T03:49:41;14.80;99.90
8676;DHT22;4375;52.486;13.424;2022-09-01T03:52:08;14.70;99.90
8676;DHT22;4375;52.486;13.424;2022-09-01T03:54:35;14.70;99.90
8676;DHT22;4375;52.486;13.424;2022-09-01T03:57:01;14.80;99.90
8676;DHT22;4375;52.486;13.424;2022-09-01T03:59:31;14.70;99.90
8676;DHT22;4375;52.486;13.424;2022-09-01T04:01:58;14.70;99.90
8676;DHT22;4375;52.486;13.424;2022-09-01T04:04:24;14.70;99.90
8676;DHT22;4375;52.486;13.424;2022-09-01T04:06:51;14.70;99.90
8676;DHT22;4375;52.486;13.424;2022-09-01T04:09:17;14.60;99.90
8676;DHT22;4375;52.486;13.424;2022-09-01T04:11:43;14.60;99.90
8676;DHT22;4375;52.486;13.424;2022-09-01T04:14:11;14.70;99.90
8676;DHT22;4375;52.486;13.424;2022-09-01T04:16:37;14.60;99.90
8676;DHT22;4375;52.486;13.424;2022-09-01T04:19:23;14.60;99.90
8676;DHT22;4375;52.486;13.424;2022-09-01T04:21:53;14.50;99.90
8676;DHT22;4375;52.486;13.424;2022-09-01T04:24:20;14.50;99.90
8676;DHT22;4375;52.486;13.424;2022-09-01T04:26:49;14.50;99.90
8676;DHT22;4375;52.486;13.424;2022-09-01T04:29:19;14.40;99.90
8676;DHT22;4375;52.486;13.424;2022-09-01T04:32:04;14.30;99.90
8676;DHT22;4375;52.486;13.424;2022-09-01T04:34:33;14.20;99.90
8676;DHT22;4375;52.486;13.424;2022-09-01T04:37:07;14.20;99.90
8676;DHT22;4375;52.486;13.424;2022-09-01T04:39:33;14.20;99.90
8676;DHT22;4375;52.486;13.424;2022-09-01T04:42:00;14.20;99.90
8676;DHT22;4375;52.486;13.424;2022-09-01T04:44:33;14.20;99.90
8676;DHT22;4375;52.486;13.424;2022-09-01T04:47:00;14.20;99.90
8676;DHT22;4375;52.486;13.424;2022-09-01T04:49:28;14.20;99.90
8676;DHT22;4375;52.486;13.424;2022-09-01T04:51:58;14.20;99.90
8676;DHT22;4375;52.486;13.424;2022-09-01T04:54:24;14.20;99.90
8676;DHT22;4375;52.486;13.424;2022-09-01T04:56:50;14.20;99.90
8676;DHT22;4375;52.486;13.424;2022-09-01T04:59:19;14.30;99.90
8676;DHT22;4375;52.486;13.424;2022-09-01T05:01:45;14.20;99.90
8676;DHT22;4375;52.486;13.424;2022-09-01T05:04:20;14.20;99.90
8676;DHT22;4375;52.486;13.424;2022-09-01T05:06:50;14.20;99.90
8676;DHT22;4375;52.486;13.424;2022-09-01T05:09:20;14.20;99.90
8676;DHT22;4375;52.486;13.424;2022-09-01T05:11:46;14.20;99.90
8676;DHT22;4375;52.486;13.424;2022-09-01T05:14:13;14.20;99.90
8676;DHT22;4375;52.486;13.424;2022-09-01T05:16:38;14.30;99.90
8676;DHT22;4375;52.486;13.424;2022-09-01T05:19:06;14.30;99.90
8676;DHT22;4375;52.486;13.424;2022-09-01T05:21:36;14.30;99.90
8676;DHT22;4375;52.486;13.424;2022-09-01T05:24:03;14.40;99.90
8676;DHT22;4375;52.486;13.424;2022-09-01T05:26:31;14.30;99.90
8676;DHT22;4375;52.486;13.424;2022-09-01T05:29:02;14.30;99.90
8676;DHT22;4375;52.486;13.424;2022-09-01T05:31:29;14.30;99.90
8676;DHT22;4375;52.486;13.424;2022-09-01T05:33:59;14.30;99.90
8676;DHT22;4375;52.486;13.424;2022-09-01T05:36:26;14.30;99.90
8676;DHT22;4375;52.486;13.424;2022-09-01T05:38:53;14.40;99.90
8676;DHT22;4375;52.486;13.424;2022-09-01T05:41:19;14.40;99.90
8676;DHT22;4375;52.486;13.424;2022-09-01T05:43:49;14.50;99.90
8676;DHT22;4375;52.486;13.424;2022-09-01T05:46:19;14.60;99.90
8676;DHT22;4375;52.486;13.424;2022-09-01T05:48:46;14.60;99.90
8676;DHT22;4375;52.486;13.424;2022-09-01T05:51:15;14.60;99.90
8676;DHT22;4375;52.486;13.424;2022-09-01T05:53:44;14.70;99.90
8676;DHT22;4375;52.486;13.424;2022-09-01T05:56:11;14.60;99.90
8676;DHT22;4375;52.486;13.424;2022-09-01T05:58:38;14.60;99.90
8676;DHT22;4375;52.486;13.424;2022-09-01T06:01:05;14.80;99.90
8676;DHT22;4375;52.486;13.424;2022-09-01T06:03:31;14.70;99.90
8676;DHT22;4375;52.486;13.424;2022-09-01T06:06:02;14.70;99.90
8676;DHT22;4375;52.486;13.424;2022-09-01T06:08:30;14.70;99.90
8676;DHT22;4375;52.486;13.424;2022-09-01T06:10:55;14.80;99.90
8676;DHT22;4375;52.486;13.424;2022-09-01T06:13:21;14.80;99.90
8676;DHT22;4375;52.486;13.424;2022-09-01T06:15:50;14.80;99.90
8676;DHT22;4375;52.486;13.424;2022-09-01T06:18:19;14.90;99.90
8676;DHT22;4375;52.486;13.424;2022-09-01T06:20:46;14.90;99.90
8676;DHT22;4375;52.486;13.424;2022-09-01T06:23:13;15.00;99.90
8676;DHT22;4375;52.486;13.424;2022-09-01T06:25:48;15.10;99.90
8676;DHT22;4375;52.486;13.424;2022-09-01T06:28:18;15.20;99.90
8676;DHT22;4375;52.486;13.424;2022-09-01T06:30:46;15.30;99.90
8676;DHT22;4375;52.486;13.424;2022-09-01T06:33:13;15.40;99.90
8676;DHT22;4375;52.486;13.424;2022-09-01T06:35:40;15.50;99.90
8676;DHT22;4375;52.486;13.424;2022-09-01T06:38:08;15.50;99.90
8676;DHT22;4375;52.486;13.424;2022-09-01T06:40:34;15.60;99.90
8676;DHT22;4375;52.486;13.424;2022-09-01T06:43:03;15.70;99.90
8676;DHT22;4375;52.486;13.424;2022-09-01T06:45:43;15.70;99.90
8676;DHT22;4375;52.486;13.424;2022-09-01T06:48:10;15.60;99.90
8676;DHT22;4375;52.486;13.424;2022-09-01T06:50:41;15.70;99.90
8676;DHT22;4375;52.486;13.424;2022-09-01T06:53:07;15.60;99.90
8676;DHT22;4375;52.486;13.424;2022-09-01T06:55:36;15.70;99.90
8676;DHT22;4375;52.486;13.424;2022-09-01T06:58:07;15.70;99.90
8676;DHT22;4375;52.486;13.424;2022-09-01T07:00:37;15.80;99.90
8676;DHT22;4375;52.486;13.424;2022-09-01T07:03:12;15.80;99.90
8676;DHT22;4375;52.486;13.424;2022-09-01T07:05:40;15.90;99.90
8676;DHT22;4375;52.486;13.424;2022-09-01T07:08:08;15.90;99.90
8676;DHT22;4375;52.486;13.424;2022-09-01T07:10:40;16.00;99.90
8676;DHT22;4375;52.486;13.424;2022-09-01T07:13:17;16.10;99.90
8676;DHT22;4375;52.486;13.424;2022-09-01T07:15:50;16.10;99.90
8676;DHT22;4375;52.486;13.424;2022-09-01T07:18:18;16.10;99.90
8676;DHT22;4375;52.486;13.424;2022-09-01T07:20:46;16.30;99.90
8676;DHT22;4375;52.486;13.424;2022-09-01T07:23:16;16.50;99.90
8676;DHT22;4375;52.486;13.424;2022-09-01T07:25:44;16.60;99.90
8676;DHT22;4375;52.486;13.424;2022-09-01T07:28:12;16.70;99.90
8676;DHT22;4375;52.486;13.424;2022-09-01T07:30:50;16.70;99.90
8676;DHT22;4375;52.486;13.424;2022-09-01T07:33:18;16.80;99.90
8676;DHT22;4375;52.486;13.424;2022-09-01T07:35:49;16.80;99.90
8676;DHT22;4375;52.486;13.424;2022-09-01T07:38:18;16.90;99.90
8676;DHT22;4375;52.486;13.424;2022-09-01T07:40:44;17.00;99.90
8676;DHT22;4375;52.486;13.424;2022-09-01T07:43:20;17.20;99.90
8676;DHT22;4375;52.486;13.424;2022-09-01T07:45:49;17.00;99.90
8676;DHT22;4375;52.486;13.424;2022-09-01T07:48:19;17.00;99.90
8676;DHT22;4375;52.486;13.424;2022-09-01T07:50:50;17.00;99.90
8676;DHT22;4375;52.486;13.424;2022-09-01T07:55:45;17.10;99.90
8676;DHT22;4375;52.486;13.424;2022-09-01T07:58:14;17.20;99.90
8676;DHT22;4375;52.486;13.424;2022-09-01T08:00:40;17.50;99.90
8676;DHT22;4375;52.486;13.424;2022-09-01T08:03:09;17.70;99.90
8676;DHT22;4375;52.486;13.424;2022-09-01T08:05:34;17.50;99.90
8676;DHT22;4375;52.486;13.424;2022-09-01T08:08:00;17.70;99.90
8676;DHT22;4375;52.486;13.424;2022-09-01T08:10:26;18.50;99.90
8676;DHT22;4375;52.486;13.424;2022-09-01T08:12:52;19.10;99.90
8676;DHT22;4375;52.486;13.424;2022-09-01T08:15:31;19.70;99.90
8676;DHT22;4375;52.486;13.424;2022-09-01T08:18:06;20.50;99.90
8676;DHT22;4375;52.486;13.424;2022-09-01T08:20:52;20.70;99.90
8676;DHT22;4375;52.486;13.424;2022-09-01T08:23:21;21.20;99.90
8676;DHT22;4375;52.486;13.424;2022-09-01T08:26:07;21.60;99.90
8676;DHT22;4375;52.486;13.424;2022-09-01T08:28:34;23.30;99.90
8676;DHT22;4375;52.486;13.424;2022-09-01T08:31:09;24.60;99.90
8676;DHT22;4375;52.486;13.424;2022-09-01T08:33:41;23.70;99.90
8676;DHT22;4375;52.486;13.424;2022-09-01T08:36:14;24.60;99.90
8676;DHT22;4375;52.486;13.424;2022-09-01T08:39:00;24.60;99.90
8676;DHT22;4375;52.486;13.424;2022-09-01T08:47:08;25.50;99.90
8676;DHT22;4375;52.486;13.424;2022-09-01T08:49:35;25.90;99.90
8676;DHT22;4375;52.486;13.424;2022-09-01T08:52:27;25.60;99.90
8676;DHT22;4375;52.486;13.424;2022-09-01T08:55:34;25.20;99.90
8676;DHT22;4375;52.486;13.424;2022-09-01T08:58:03;25.80;99.90
8676;DHT22;4375;52.486;13.424;2022-09-01T09:00:37;25.90;99.90
8676;DHT22;4375;52.486;13.424;2022-09-01T09:06:32;26.30;99.90
8676;DHT22;4375;52.486;13.424;2022-09-01T09:09:02;25.60;99.90
8676;DHT22;4375;52.486;13.424;2022-09-01T09:16:58;26.70;99.90
8676;DHT22;4375;52.486;13.424;2022-09-01T09:19:34;27.60;99.90
8676;DHT22;4375;52.486;13.424;2022-09-01T09:22:04;27.10;99.90
8676;DHT22;4375;52.486;13.424;2022-09-01T09:27:57;24.30;99.90
8676;DHT22;4375;52.486;13.424;2022-09-01T09:30:20;23.10;99.90
8676;DHT22;4375;52.486;13.424;2022-09-01T09:33:07;22.50;99.90
8676;DHT22;4375;52.486;13.424;2022-09-01T09:35:44;22.30;99.90
8676;DHT22;4375;52.486;13.424;2022-09-01T09:43:23;22.60;99.90
8676;DHT22;4375;52.486;13.424;2022-09-01T09:45:50;22.30;99.90
8676;DHT22;4375;52.486;13.424;2022-09-01T09:48:35;22.60;99.90
8676;DHT22;4375;52.486;13.424;2022-09-01T09:51:16;22.60;99.90
8676;DHT22;4375;52.486;13.424;2022-09-01T09:53:42;21.90;99.90
8676;DHT22;4375;52.486;13.424;2022-09-01T09:56:20;21.80;99.90
8676;DHT22;4375;52.486;13.424;2022-09-01T09:58:48;21.90;99.90
8676;DHT22;4375;52.486;13.424;2022-09-01T10:03:53;21.90;99.90
8676;DHT22;4375;52.486;13.424;2022-09-01T10:06:40;21.80;99.90
8676;DHT22;4375;52.486;13.424;2022-09-01T10:11:54;21.70;99.90
8676;DHT22;4375;52.486;13.424;2022-09-01T10:14:37;21.80;99.90
8676;DHT22;4375;52.486;13.424;2022-09-01T10:17:19;21.70;99.90
8676;DHT22;4375;52.486;13.424;2022-09-01T10:19:57;21.80;99.90
8676;DHT22;4375;52.486;13.424;2022-09-01T10:22:24;21.80;99.90
8676;DHT22;4375;52.486;13.424;2022-09-01T10:24:50;21.90;99.90
8676;DHT22;4375;52.486;13.424;2022-09-01T10:27:22;21.90;99.90
8676;DHT22;4375;52.486;13.424;2022-09-01T10:30:10;21.50;99.90
8676;DHT22;4375;52.486;13.424;2022-09-01T10:35:21;21.30;99.90
8676;DHT22;4375;52.486;13.424;2022-09-01T10:37:49;21.30;99.90
8676;DHT22;4375;52.486;13.424;2022-09-01T10:42:55;21.50;99.90
8676;DHT22;4375;52.486;13.424;2022-09-01T10:45:36;21.30;99.90
8676;DHT22;4375;52.486;13.424;2022-09-01T10:50:47;21.60;99.90
8676;DHT22;4375;52.486;13.424;2022-09-01T11:04:05;21.70;99.90
8676;DHT22;4375;52.486;13.424;2022-09-01T11:11:46;21.80;99.90
8676;DHT22;4375;52.486;13.424;2022-09-01T11:14:32;22.00;99.90
8676;DHT22;4375;52.486;13.424;2022-09-01T11:17:20;22.10;99.90
8676;DHT22;4375;52.486;13.424;2022-09-01T11:28:02;22.30;99.90
8676;DHT22;4375;52.486;13.424;2022-09-01T11:36:01;21.20;99.90
8676;DHT22;4375;52.486;13.424;2022-09-01T11:38:31;21.20;99.90
8676;DHT22;4375;52.486;13.424;2022-09-01T11:40:58;21.10;99.90
8676;DHT22;4375;52.486;13.424;2022-09-01T11:43:25;21.10;99.90
8676;DHT22;4375;52.486;13.424;2022-09-01T11:48:35;21.40;99.90
8676;DHT22;4375;52.486;13.424;2022-09-01T11:51:02;21.80;99.90
8676;DHT22;4375;52.486;13.424;2022-09-01T11:53:28;21.90;99.90
8676;DHT22;4375;52.486;13.424;2022-09-01T11:55:56;22.00;99.90
8676;DHT22;4375;52.486;13.424;2022-09-01T11:58:36;22.00;99.90
8676;DHT22;4375;52.486;13.424;2022-09-01T12:01:30;21.90;99.90
8676;DHT22;4375;52.486;13.424;2022-09-01T12:03:57;21.70;99.90
8676;DHT22;4375;52.486;13.424;2022-09-01T12:06:28;21.70;99.90
8676;DHT22;4375;52.486;13.424;2022-09-01T12:08:59;21.80;99.90
8676;DHT22;4375;52.486;13.424;2022-09-01T12:11:33;21.60;99.90
8676;DHT22;4375;52.486;13.424;2022-09-01T12:14:08;21.80;99.90
8676;DHT22;4375;52.486;13.424;2022-09-01T12:16:36;21.80;99.90
8676;DHT22;4375;52.486;13.424;2022-09-01T12:19:05;21.80;99.90
8676;DHT22;4375;52.486;13.424;2022-09-01T12:21:35;22.10;99.90
8676;DHT22;4375;52.486;13.424;2022-09-01T12:24:15;22.20;99.90
8676;DHT22;4375;52.486;13.424;2022-09-01T12:26:42;22.40;99.90
8676;DHT22;4375;52.486;13.424;2022-09-01T12:29:09;21.70;99.90
8676;DHT22;4375;52.486;13.424;2022-09-01T12:31:36;21.40;99.90
8676;DHT22;4375;52.486;13.424;2022-09-01T12:34:04;21.50;99.90
8676;DHT22;4375;52.486;13.424;2022-09-01T12:36:34;21.60;99.90
8676;DHT22;4375;52.486;13.424;2022-09-01T12:39:22;21.60;99.90
8676;DHT22;4375;52.486;13.424;2022-09-01T12:42:22;21.70;99.90
8676;DHT22;4375;52.486;13.424;2022-09-01T12:45:07;21.50;99.90
8676;DHT22;4375;52.486;13.424;2022-09-01T12:52:28;21.60;99.90
8676;DHT22;4375;52.486;13.424;2022-09-01T13:05:34;21.90;99.90
8676;DHT22;4375;52.486;13.424;2022-09-01T13:08:06;21.90;99.90
8676;DHT22;4375;52.486;13.424;2022-09-01T13:10:47;22.00;99.90
8676;DHT22;4375;52.486;13.424;2022-09-01T13:13:15;22.00;99.90
8676;DHT22;4375;52.486;13.424;2022-09-01T13:15:46;22.00;99.90
8676;DHT22;4375;52.486;13.424;2022-09-01T13:18:13;22.00;99.90
8676;DHT22;4375;52.486;13.424;2022-09-01T13:20:39;22.10;99.90
8676;DHT22;4375;52.486;13.424;2022-09-01T13:23:06;22.20;99.90
8676;DHT22;4375;52.486;13.424;2022-09-01T13:28:08;22.30;99.90
8676;DHT22;4375;52.486;13.424;2022-09-01T13:33:15;22.20;99.90
8676;DHT22;4375;52.486;13.424;2022-09-01T13:35:41;22.20;99.90
8676;DHT22;4375;52.486;13.424;2022-09-01T13:38:06;22.00;99.90
8676;DHT22;4375;52.486;13.424;2022-09-01T13:41:40;22.10;99.90
8676;DHT22;4375;52.486;13.424;2022-09-01T13:44:07;21.90;99.90
8676;DHT22;4375;52.486;13.424;2022-09-01T13:46:47;21.80;99.90
8676;DHT22;4375;52.486;13.424;2022-09-01T13:49:30;21.70;99.90
8676;DHT22;4375;52.486;13.424;2022-09-01T13:51:56;21.50;99.90
8676;DHT22;4375;52.486;13.424;2022-09-01T13:54:22;21.40;99.90
8676;DHT22;4375;52.486;13.424;2022-09-01T13:56:47;21.50;99.90
8676;DHT22;4375;52.486;13.424;2022-09-01T13:59:13;21.50;99.90
8676;DHT22;4375;52.486;13.424;2022-09-01T14:01:39;21.60;99.90
8676;DHT22;4375;52.486;13.424;2022-09-01T14:04:08;21.60;99.90
8676;DHT22;4375;52.486;13.424;2022-09-01T14:06:39;21.70;99.90
8676;DHT22;4375;52.486;13.424;2022-09-01T14:09:05;21.70;99.90
8676;DHT22;4375;52.486;13.424;2022-09-01T14:11:31;21.60;99.90
8676;DHT22;4375;52.486;13.424;2022-09-01T14:13:57;21.60;99.90
8676;DHT22;4375;52.486;13.424;2022-09-01T14:16:23;21.50;99.90
8676;DHT22;4375;52.486;13.424;2022-09-01T14:18:48;21.50;99.90
8676;DHT22;4375;52.486;13.424;2022-09-01T14:21:15;21.50;99.90
8676;DHT22;4375;52.486;13.424;2022-09-01T14:23:42;21.50;99.90
8676;DHT22;4375;52.486;13.424;2022-09-01T14:26:13;21.50;99.90
8676;DHT22;4375;52.486;13.424;2022-09-01T14:28:40;21.50;99.90
8676;DHT22;4375;52.486;13.424;2022-09-01T14:31:11;21.30;99.90
8676;DHT22;4375;52.486;13.424;2022-09-01T14:33:38;21.20;99.90
8676;DHT22;4375;52.486;13.424;2022-09-01T14:36:04;21.10;99.90
8676;DHT22;4375;52.486;13.424;2022-09-01T14:38:31;21.00;99.90
8676;DHT22;4375;52.486;13.424;2022-09-01T14:40:57;21.00;99.90
8676;DHT22;4375;52.486;13.424;2022-09-01T14:43:22;21.00;99.90
8676;DHT22;4375;52.486;13.424;2022-09-01T14:46:00;20.90;99.90
8676;DHT22;4375;52.486;13.424;2022-09-01T14:48:25;21.00;99.90
8676;DHT22;4375;52.486;13.424;2022-09-01T14:50:51;21.00;99.90
8676;DHT22;4375;52.486;13.424;2022-09-01T14:53:18;21.00;99.90
8676;DHT22;4375;52.486;13.424;2022-09-01T14:55:44;21.10;99.90
8676;DHT22;4375;52.486;13.424;2022-09-01T14:58:11;21.00;99.90
8676;DHT22;4375;52.486;13.424;2022-09-01T15:00:36;21.00;99.90
8676;DHT22;4375;52.486;13.424;2022-09-01T15:03:03;21.10;99.90
8676;DHT22;4375;52.486;13.424;2022-09-01T15:05:29;21.20;99.90
8676;DHT22;4375;52.486;13.424;2022-09-01T15:07:54;21.10;99.90
8676;DHT22;4375;52.486;13.424;2022-09-01T15:10:23;20.80;99.90
8676;DHT22;4375;52.486;13.424;2022-09-01T15:12:50;20.70;99.90
8676;DHT22;4375;52.486;13.424;2022-09-01T15:15:16;20.70;99.90
8676;DHT22;4375;52.486;13.424;2022-09-01T15:17:42;20.70;99.90
8676;DHT22;4375;52.486;13.424;2022-09-01T15:20:08;20.60;99.90
8676;DHT22;4375;52.486;13.424;2022-09-01T15:22:53;20.60;99.90
8676;DHT22;4375;52.486;13.424;2022-09-01T15:25:19;20.60;99.90
8676;DHT22;4375;52.486;13.424;2022-09-01T15:27:45;20.60;99.90
8676;DHT22;4375;52.486;13.424;2022-09-01T15:30:12;20.50;99.90
8676;DHT22;4375;52.486;13.424;2022-09-01T15:32:46;20.50;99.90
8676;DHT22;4375;52.486;13.424;2022-09-01T15:35:12;20.40;99.90
8676;DHT22;4375;52.486;13.424;2022-09-01T15:37:39;20.40;99.90
8676;DHT22;4375;52.486;13.424;2022-09-01T15:40:06;20.50;99.90
8676;DHT22;4375;52.486;13.424;2022-09-01T15:42:35;20.60;99.90
8676;DHT22;4375;52.486;13.424;2022-09-01T15:45:04;20.60;99.90
8676;DHT22;4375;52.486;13.424;2022-09-01T15:47:30;20.60;99.90
8676;DHT22;4375;52.486;13.424;2022-09-01T15:50:04;20.60;99.90
8676;DHT22;4375;52.486;13.424;2022-09-01T15:52:31;20.60;99.90
8676;DHT22;4375;52.486;13.424;2022-09-01T15:54:57;20.60;99.90
8676;DHT22;4375;52.486;13.424;2022-09-01T15:57:23;20.60;99.90
8676;DHT22;4375;52.486;13.424;2022-09-01T15:59:49;20.50;99.90
8676;DHT22;4375;52.486;13.424;2022-09-01T16:02:15;20.50;99.90
8676;DHT22;4375;52.486;13.424;2022-09-01T16:04:43;20.50;99.90
8676;DHT22;4375;52.486;13.424;2022-09-01T16:07:08;20.50;99.90
8676;DHT22;4375;52.486;13.424;2022-09-01T16:09:34;20.50;99.90
8676;DHT22;4375;52.486;13.424;2022-09-01T16:12:01;20.60;99.90
8676;DHT22;4375;52.486;13.424;2022-09-01T16:14:27;20.60;99.90
8676;DHT22;4375;52.486;13.424;2022-09-01T16:17:10;20.60;99.90
8676;DHT22;4375;52.486;13.424;2022-09-01T16:19:57;20.70;99.90
8676;DHT22;4375;52.486;13.424;2022-09-01T16:22:41;20.70;99.90
8676;DHT22;4375;52.486;13.424;2022-09-01T16:25:38;20.60;99.90
8676;DHT22;4375;52.486;13.424;2022-09-01T16:30:52;20.50;99.90
8676;DHT22;4375;52.486;13.424;2022-09-01T16:33:19;20.50;99.90
8676;DHT22;4375;52.486;13.424;2022-09-01T16:36:55;20.40;99.90
8676;DHT22;4375;52.486;13.424;2022-09-01T16:52:27;20.50;99.90
8676;DHT22;4375;52.486;13.424;2022-09-01T16:55:20;20.50;99.90
8676;DHT22;4375;52.486;13.424;2022-09-01T16:58:10;20.40;99.90
8676;DHT22;4375;52.486;13.424;2022-09-01T17:00:49;20.40;99.90
8676;DHT22;4375;52.486;13.424;2022-09-01T17:03:24;20.30;99.90
8676;DHT22;4375;52.486;13.424;2022-09-01T17:06:07;20.30;99.90
8676;DHT22;4375;52.486;13.424;2022-09-01T17:08:50;20.20;99.90
8676;DHT22;4375;52.486;13.424;2022-09-01T17:14:12;20.10;99.90
8676;DHT22;4375;52.486;13.424;2022-09-01T17:16:48;20.00;99.90
8676;DHT22;4375;52.486;13.424;2022-09-01T17:19:19;20.00;99.90
8676;DHT22;4375;52.486;13.424;2022-09-01T17:21:48;19.90;99.90
8676;DHT22;4375;52.486;13.424;2022-09-01T17:27:03;19.80;99.90
8676;DHT22;4375;52.486;13.424;2022-09-01T17:29:44;19.70;99.90
8676;DHT22;4375;52.486;13.424;2022-09-01T17:34:58;19.60;99.90
8676;DHT22;4375;52.486;13.424;2022-09-01T17:38:05;19.60;99.90
8676;DHT22;4375;52.486;13.424;2022-09-01T17:58:23;19.30;99.90
8676;DHT22;4375;52.486;13.424;2022-09-01T18:01:21;19.30;99.90
8676;DHT22;4375;52.486;13.424;2022-09-01T18:06:55;19.20;99.90
8676;DHT22;4375;52.486;13.424;2022-09-01T18:09:24;19.10;99.90
8676;DHT22;4375;52.486;13.424;2022-09-01T18:12:00;19.00;99.90
8676;DHT22;4375;52.486;13.424;2022-09-01T18:14:34;19.00;99.90
8676;DHT22;4375;52.486;13.424;2022-09-01T18:17:24;19.00;99.90
8676;DHT22;4375;52.486;13.424;2022-09-01T18:20:05;19.00;99.90
8676;DHT22;4375;52.486;13.424;2022-09-01T18:22:38;18.90;99.90
8676;DHT22;4375;52.486;13.424;2022-09-01T18:25:14;18.90;99.90
8676;DHT22;4375;52.486;13.424;2022-09-01T18:27:42;18.90;99.90
8676;DHT22;4375;52.486;13.424;2022-09-01T18:30:13;18.90;99.90